Tiempo atmosférico en la estación meteorológica de Fuerteventura Aeropuerto, Las Palmas (25 m.)



Fecha
DESCASC
Temp. máxima en grados centígrados (hora)
DESCASC
Temp. mínima en grados centígrados (hora)
DESCASC
Temp. media en grados centígrados
DESCASC
Racha de viento máxima en m/sg (hora)
DESCASC
Velocidad máxima media en intervalos de 10 minutos(hora)
DESCASC
Precipitaciones diarias en mm
DESCASC
Precipitaciones de 00:00 a 06:00 en mm
DESCASC
Precipitaciones de 06:00 a 12:00 en mm
DESCASC
Precipitaciones de 12:00 a 18:00 en mm
DESCASC
Precipitaciones de 18:00 a 24:00 en mm
DESCASC
16-06-2019 23.6 (16:20) 17 (04:50) 20.3 7.78 (00:20) 6.11 (11:40) 0 0 0 0 0
15-06-2019 24 (14:40) 17.2 (06:30) 20.6 9.17 (09:40) 7.5 (09:30) 0 0 0 0 0
14-06-2019 23.4 (13:30) 17 (06:50) 20.2 8.33 (08:20) 6.67 (16:10) 0 0 0 0 0
13-06-2019 24.9 (15:20) 19.1 (00:00) 22 11.67 (15:30) 9.17 (15:40) 0 0 0 0 0
12-06-2019 24.8 (15:40) 18.9 (00:00) 21.8 15 (17:30) 10.83 (10:10) 0 0 0 0 0
11-06-2019 26.1 (15:30) 19.2 (00:00) 22.7 16.39 (21:30) 12.22 (20:30) 0 0 0 0 0
10-06-2019 26.2 (15:00) 19.3 (00:00) 22.8 14.44 (15:10) 11.11 (15:00) 0 0 0 0 0
09-06-2019 24.2 (15:20) 18.7 (00:00) 21.5 13.33 (17:20) 10.56 (19:30) 0 0 0 0 0
08-06-2019 24 (15:50) 19.4 (00:00) 21.7 12.78 (23:10) 10.28 (23:00) 0 0 0 0 0
07-06-2019 24.4 (15:40) 18.6 (00:00) 21.5 11.39 (09:00) 8.61 (00:10) 0 0 0 0 0
06-06-2019 25 (15:30) 19.2 (00:00) 22.1 13.33 (16:50) 10 (20:20) 0 0 0 0 0
05-06-2019 24.5 (13:20) 20.1 (00:00) 22.3 12.78 (19:20) 10.28 (19:30) 0 0 0 0 0
04-06-2019 26.6 (11:00) 20.6 (00:00) 23.6 12.5 (21:00) 9.17 (21:00) 0 0 0 0 0
03-06-2019 25.5 (06:30) 22.6 (00:00) 24.1 9.72 (02:30) 7.5 (02:30) 0 0 0 0 0
02-06-2019 29.7 (16:40) 22.1 (00:00) 25.9 10.28 (14:30) 7.78 (14:30) 0 0 0 0 0
01-06-2019 23.7 (18:20) 19.6 (00:00) 21.7 10.28 (03:00) 7.22 (03:00) 0 0 0 0 0
31-05-2019 28.3 (16:40) 18.7 (00:00) 23.5 13.89 (19:10) 9.17 (19:50) 0 0 0 0 0
30-05-2019 28 (15:00) 17.6 (00:00) 22.8 15 (18:10) 9.72 (18:10) 0 0 0 0 0
29-05-2019 27.7 (15:10) 17.5 (00:00) 22.6 13.33 (16:50) 8.89 (13:00) 0 0 0 0 0
28-05-2019 25.6 (18:20) 18.8 (00:00) 22.2 11.67 (17:10) 8.89 (17:20) 0 0 0 0 0
27-05-2019 29 (15:10) 20.2 (00:00) 24.6 12.78 (11:50) 9.17 (12:10) 0 0 0 0 0
26-05-2019 27.8 (15:10) 18.1 (00:00) 22.9 12.5 (15:30) 8.89 (15:40) 0 0 0 0 0
25-05-2019 24.6 (17:50) 18.6 (00:00) 21.6 13.89 (21:20) 10.56 (20:20) 0 0 0 0 0
24-05-2019 25.1 (19:10) 19 (00:00) 22.1 12.5 (09:10) 9.44 (10:00) 0 0 0 0 0
23-05-2019 24 (18:40) 18.1 (00:00) 21.1 14.44 (19:20) 11.11 (19:10) 0 0 0 0 0
22-05-2019 25.2 (15:50) 18.9 (00:00) 22.1 16.11 (22:40) 11.39 (22:30) 0 0 0 0 0
21-05-2019 24.6 (16:50) 19 (23:50) 21.8 12.78 (17:20) 10.28 (20:40) 0 0 0 0 0

Gráficas

Temp. máximas Temp. mínimas Temp. medias Precipitaciones Rachas de viento máximas Velocidades máximas media en intervalos de 10 minutos

Datos horarios

Fecha y hora oficial Temperatura (ºC) Velocidad del viento (km/h) Dirección del viento Racha (km/h) Dirección de racha Precipitación (mm) Presión (hPa) Tendencia (hPa) Humedad (%)
2019-06-19 23:00:00 22.5 19 Noroeste 32 Noroeste 0 1016.2 1.2 69
2019-06-19 22:00:00 22.9 22 Norte 30 Norte 0 1015.8 1.1 68
2019-06-19 21:00:00 23.6 23 Norte 32 Noroeste 0 1015.3 0.6 64
2019-06-19 20:00:00 25 25 Noroeste 37 Noroeste 0 1015 0.1 56
2019-06-19 19:00:00 26.4 25 Norte 41 Norte 0 1014.7 -0.7 49
2019-06-19 18:00:00 27.1 27 Norte 42 Norte 0 1014.7 -0.8 46
2019-06-19 17:00:00 27.2 24 Norte 42 Nordeste 0 1014.9 -1.1 49
2019-06-19 16:00:00 25.2 30 Nordeste 46 Nordeste 0 1015.4 -0.8 64
2019-06-19 15:00:00 25.8 30 Nordeste 41 Nordeste 0 1015.5 -0.8 63
2019-06-19 14:00:00 25 22 Este 30 Nordeste 0 1016 -0.1 64
2019-06-19 13:00:00 24.3 22 Nordeste 30 Nordeste 0 1016.2 0.2 69
2019-06-19 12:00:00 24.1 21 Nordeste 28 Nordeste 0 1016.3 0.5 67
2019-06-19 11:00:00 23.4 21 Nordeste 28 Nordeste 0 1016.1 0.5 67
2019-06-19 10:00:00 22.7 19 Nordeste 26 Nordeste 0 1016 0.8 75
2019-06-19 09:00:00 22.1 16 Norte 22 Norte 0 1015.8 1.2 73
2019-06-19 08:00:00 20.4 10 Norte 21 Noroeste 0 1015.6 1.1 77
2019-06-19 07:00:00 19.8 10 Norte 13 Norte 0 1015.2 0.7 79
2019-06-19 06:00:00 19.6 12 Norte 15 Norte 0 1014.6 -0.2 78
2019-06-19 05:00:00 19.4 6 Norte 9 Norte 0 1014.5 -0.7 78
2019-06-19 04:00:00 19.9 8 Noroeste 13 Noroeste 0 1014.5 -1.1 76
2019-06-19 03:00:00 20.4 7 Noroeste 13 Noroeste 0 1014.8 -1.2 76
2019-06-19 02:00:00 21.4 9 Noroeste 15 Norte 0 1015.2 -0.4 76
2019-06-19 01:00:00 21.3 10 Norte 13 Norte 0 1015.6 0.3 76
2019-06-19 00:00:00 22.3 5 Norte 11 Noroeste 0 1016 1 73
2019-06-18 23:00:00 22.6 8 Noroeste 13 Noroeste 0 1015.6 0.9 73
2019-06-18 22:00:00 22.4 0 Calma 5 Este 0 1015.3 0.7 77
2019-06-18 21:00:00 22.6 4 Este 8 Sudeste 0 1015 0.3 78
2019-06-18 20:00:00 22.7 6 Este 11 Sudeste 0 1014.7 -0.4 77
2019-06-18 19:00:00 23 8 Sudeste 13 Sudeste 0 1014.6 -0.7 76
2019-06-18 18:00:00 23.2 8 Este 13 Sudeste 0 1014.7 -0.5 74
2019-06-18 17:00:00 23 9 Sudeste 15 Sudeste 0 1015.1 -0.4 76
2019-06-18 16:00:00 22.8 9 Sudeste 15 Este 0 1015.3 -0.4 77
2019-06-18 15:00:00 22.9 11 Sudeste 17 Este 0 1015.2 -0.6 76
2019-06-18 14:00:00 23.5 14 Sudeste 18 Sudeste 0 1015.5 0.1 73
2019-06-18 13:00:00 23.2 13 Sudeste 21 Sudeste 0 1015.7 0.5 74
2019-06-18 12:00:00 23.2 13 Sudeste 18 Sudeste 0 1015.8 0.9 75
2019-06-18 11:00:00 22.8 13 Este 22 Este 0 1015.4 0.8 75
2019-06-18 10:00:00 22 11 Este 15 Este 0 1015.2 1 75
2019-06-18 09:00:00 21.4 9 Nordeste 13 Nordeste 0 1014.9 0.9 74
2019-06-18 08:00:00 20.2 6 Norte 13 Oeste 0 1014.6 0.8 77
2019-06-18 07:00:00 18.6 9 Noroeste 11 Noroeste 0 1014.2 0.2 78
2019-06-18 06:00:00 18.6 2 Noroeste 8 Noroeste 0 1014 -0.4 75
2019-06-18 05:00:00 18.5 0 Calma -- -- 0 1013.8 -1.3 70
2019-06-18 04:00:00 19.2 3 Oeste 5 Oeste 0 1014 -1.5 73
2019-06-18 03:00:00 19.3 -- -- -- -- 0 1014.4 -1.4 70
2019-06-18 02:00:00 20.2 5 Oeste 8 Oeste 0 1015.1 -0.5 71
2019-06-18 01:00:00 20.5 0 Calma 4 Sur 0 1015.5 0.2 74
2019-06-18 00:00:00 20.6 0 Calma 8 Sur 0 1015.8 0.9 72
2019-06-17 23:00:00 21.2 5 Sudeste 9 Este 0 1015.6 0.8 72
2019-06-17 22:00:00 21.4 6 Sur 13 Sur 0 1015.3 0.6 71
2019-06-17 21:00:00 21.8 9 Sudeste 15 Sudeste 0 1014.9 -0.1 71
2019-06-17 20:00:00 22.1 11 Sur 17 Sudeste 0 1014.8 -0.5 69
2019-06-17 19:00:00 22.6 9 Este 15 Este 0 1014.7 -0.9 66
2019-06-17 18:00:00 22.6 9 Este 15 Este 0 1015 -0.8 65
2019-06-17 17:00:00 22.4 11 Este 41 Este 0 1015.3 -0.8 65
2019-06-17 16:00:00 22.5 12 Este 18 Sudeste 0 1015.6 -0.6 64
2019-06-17 15:00:00 22.4 12 Sudeste 18 Sudeste 0 1015.8 -0.7 64
2019-06-17 14:00:00 22.4 13 Sudeste 18 Sudeste 0 1016.1 0 64
2019-06-17 13:00:00 22.2 14 Nordeste 21 Este 0 1016.2 0.2 63
2019-06-17 12:00:00 21.9 14 Este 21 Este 0 1016.5 0.5 65
2019-06-17 11:00:00 21.5 14 Este 21 Este 0 1016.1 0.3 67
2019-06-17 10:00:00 20.9 12 Nordeste 18 Nordeste 0 1016 0.2 68
2019-06-17 09:00:00 19.8 9 Norte 28 Oeste 0 1016 0.6 71
2019-06-17 08:00:00 17.7 11 Noroeste 28 Oeste 0 1015.8 -0.1 75
2019-06-17 07:00:00 16.8 11 Noroeste 13 Noroeste 0 1015.8 -0.3 78
2019-06-17 06:00:00 17.6 11 Noroeste 15 Norte 0 1015.4 -1 76
2019-06-17 05:00:00 17.8 10 Noroeste 13 Noroeste 0 1015.9 -1.2 75
2019-06-17 04:00:00 17.6 11 Noroeste 15 Noroeste 0 1016.1 -1.6 73
2019-06-17 03:00:00 18.2 12 Oeste 15 Oeste 0 1016.4 -1.5 73
2019-06-17 02:00:00 19.2 7 Oeste 9 Oeste 0 1017.1 -0.7 71
2019-06-17 01:00:00 19.3 3 Noroeste 13 Norte 0 1017.7 0.2 71
2019-06-17 00:00:00 19.6 11 Norte 15 Norte 0 1017.9 1 72
2019-06-16 23:00:00 19.9 12 Nordeste 15 Nordeste 0 1017.8 1.1 70
2019-06-16 22:00:00 20.1 12 Nordeste 18 Nordeste 0 1017.5 1.1 70
2019-06-16 21:00:00 20.6 13 Nordeste 18 Nordeste 0 1016.9 0.5 66
2019-06-16 20:00:00 21.4 14 Nordeste 21 Nordeste 0 1016.7 0.2 62
2019-06-16 19:00:00 21.9 17 Este 24 Este 0 1016.4 -0.6 60
2019-06-16 18:00:00 22.3 17 Nordeste 24 Nordeste 0 1016.4 -0.9 58
2019-06-16 17:00:00 22.5 19 Nordeste 26 Nordeste 0 1016.5 -1.2 59
2019-06-16 16:00:00 23.1 18 Nordeste 24 Nordeste 0 1017 -1 56
2019-06-16 15:00:00 23 18 Nordeste 26 Este 0 1017.3 -0.7 58
2019-06-16 14:00:00 23 19 Nordeste 26 Nordeste 0 1017.7 -0.1 56
2019-06-16 13:00:00 23 17 Nordeste 26 Nordeste 0 1018 0.6 56
2019-06-16 12:00:00 22.8 20 Nordeste 26 Nordeste 0 1018 1 55
2019-06-16 11:00:00 22 19 Nordeste 26 Nordeste 0 1017.8 1 58
2019-06-16 10:00:00 21.4 13 Nordeste 22 Nordeste 0 1017.4 0.9 57
2019-06-16 09:00:00 20.6 16 Norte 24 Norte 0 1017 1 61
2019-06-16 08:00:00 18.7 14 Norte 24 Noroeste 0 1016.8 1 73
2019-06-16 07:00:00 17.4 14 Noroeste 17 Noroeste 0 1016.5 0.5 74
2019-06-16 06:00:00 17.5 13 Noroeste 17 Noroeste 0 1016 -0.3 70
2019-06-16 05:00:00 17.3 12 Noroeste 17 Noroeste 0 1015.8 -1.1 70
2019-06-16 04:00:00 18.1 12 Noroeste 15 Noroeste 0 1016 -1.5 69
2019-06-16 03:00:00 18.3 11 Noroeste 15 Noroeste 0 1016.3 -1.7 69
2019-06-16 02:00:00 18.7 12 Norte 22 Norte 0 1016.9 -0.6 70
2019-06-16 01:00:00 19.3 19 Norte 28 Nordeste 0 1017.5 0.6 70
2019-06-16 00:00:00 20 21 Nordeste 30 Nordeste 0 1018 1.7 67
2019-06-15 23:00:00 20.4 17 Norte 32 Nordeste 0 1017.5 1.3 67
2019-06-15 22:00:00 20.6 22 Nordeste 26 Nordeste 0 1016.9 1.4 69
2019-06-15 21:00:00 21 19 Nordeste 26 Este 0 1016.3 0.5 68
2019-06-15 20:00:00 21.6 19 Nordeste 26 Nordeste 0 1016.2 0.2 62
2019-06-15 19:00:00 22.1 19 Nordeste 28 Nordeste 0 1015.5 -0.6 60
2019-06-15 18:00:00 22.5 23 Nordeste 32 Este 0 1015.8 -0.6 62
2019-06-15 17:00:00 23.1 21 Nordeste 30 Nordeste 0 1016 -0.6 58
2019-06-15 16:00:00 23.4 24 Nordeste 30 Nordeste 0 1016.1 -0.7 54
2019-06-15 15:00:00 23.2 23 Nordeste 30 Nordeste 0 1016.4 -1 54
2019-06-15 14:00:00 23.1 24 Nordeste 30 Nordeste 0 1016.6 -0.6 55
2019-06-15 13:00:00 22.9 21 Nordeste 28 Nordeste 0 1016.8 0.4 55
2019-06-15 12:00:00 21.9 20 Nordeste 28 Nordeste 0 1017.4 0.9 62
2019-06-15 11:00:00 21.7 22 Norte 30 Norte 0 1017.2 0.8 63
2019-06-15 10:00:00 21.5 23 Nordeste 33 Nordeste 0 1016.4 0.1 65
2019-06-15 09:00:00 20.7 22 Nordeste 28 Nordeste 0 1016.5 0.4 68
2019-06-15 08:00:00 19 19 Nordeste 26 Nordeste 0 1016.4 0.2 75
2019-06-15 07:00:00 17.6 13 Norte 17 Norte 0 1016.3 0.1 73
2019-06-15 06:00:00 17.5 14 Noroeste 17 Norte 0 1016.1 -0.4 74
2019-06-15 05:00:00 17.6 13 Noroeste 18 Norte 0 1016.2 -0.7 72
2019-06-15 04:00:00 18.1 13 Norte 21 Norte 0 1016.2 -1.2 73
2019-06-15 03:00:00 18.6 15 Norte 24 Nordeste 0 1016.5 -1.4 73
2019-06-15 02:00:00 18.5 12 Norte 17 Norte 0 1016.9 -0.6 72
2019-06-15 01:00:00 19.1 15 Norte 24 Nordeste 0 1017.4 0.4 70
2019-06-15 00:00:00 19.8 19 Nordeste 24 Nordeste 0 1017.9 1.2 68
2019-06-14 23:00:00 20 13 Norte 24 Nordeste 0 1017.5 1.2 67
2019-06-14 22:00:00 20.1 17 Nordeste 26 Nordeste 0 1017 1 69
2019-06-14 21:00:00 20.6 19 Nordeste 26 Nordeste 0 1016.7 0.9 69
2019-06-14 20:00:00 21.1 19 Nordeste 24 Nordeste 0 1016.3 0.4 63
2019-06-14 19:00:00 21.7 16 Nordeste 22 Nordeste 0 1016 0 54
2019-06-14 18:00:00 21.9 17 Nordeste 28 Nordeste 0 1015.8 -0.5 58
2019-06-14 17:00:00 22.6 21 Nordeste 30 Nordeste 0 1015.9 -0.7 59
2019-06-14 16:00:00 22.9 22 Nordeste 28 Nordeste 0 1016 -0.6 57
2019-06-14 15:00:00 22.1 18 Nordeste 26 Nordeste 0 1016.3 -0.4 64
2019-06-14 14:00:00 22.4 19 Este 30 Este 0 1016.6 0 59
2019-06-14 13:00:00 22.8 20 Este 26 Este 0 1016.6 0 55
2019-06-14 12:00:00 22.5 22 Nordeste 28 Nordeste 0 1016.7 0.6 53
2019-06-14 11:00:00 22.1 21 Nordeste 28 Nordeste 0 1016.6 1.1 55
2019-06-14 10:00:00 21.2 21 Nordeste 28 Norte 0 1016.6 1.8 52
2019-06-14 09:00:00 19.4 15 Norte 30 Noroeste 0 1016.1 1.6 61
2019-06-14 08:00:00 17.7 13 Noroeste 21 Noroeste 0 1015.5 1.1 69
2019-06-14 07:00:00 17 14 Norte 18 Norte 0 1014.8 0.4 73
2019-06-14 06:00:00 17.5 16 Noroeste 21 Noroeste 0 1014.5 0.2 73
2019-06-14 05:00:00 17.6 13 Noroeste 15 Noroeste 0 1014.4 -0.6 74
2019-06-14 04:00:00 17.7 11 Noroeste 17 Norte 0 1014.4 -1.1 73
2019-06-14 03:00:00 17.9 14 Norte 18 Norte 0 1014.3 -1.6 72
2019-06-14 02:00:00 18.2 15 Norte 18 Norte 0 1015 -0.7 70
2019-06-14 01:00:00 18.7 15 Norte 22 Norte 0 1015.5 0.5 70
2019-06-14 00:00:00 19.2 15 Norte 21 Norte 0 1015.9 1.5 67
2019-06-13 23:00:00 19.5 15 Norte 26 Norte 0 1015.7 1.6 64
2019-06-13 22:00:00 20 21 Norte 30 Norte 0 1015 1.8 61
2019-06-13 21:00:00 20.6 22 Norte 35 Nordeste 0 1014.4 1.3 63
2019-06-13 20:00:00 20.8 23 Nordeste 30 Nordeste 0 1014.1 1.1 73
2019-06-13 19:00:00 21.2 24 Nordeste 32 Nordeste 0 1013.2 0.1 71
2019-06-13 18:00:00 21.6 23 Nordeste 33 Nordeste 0 1013.1 0 67
2019-06-13 17:00:00 22.2 24 Nordeste 33 Nordeste 0 1013 -0.5 66
2019-06-13 16:00:00 22.8 26 Nordeste 42 Nordeste 0 1013.1 -0.3 64
2019-06-13 15:00:00 23.4 26 Nordeste 37 Nordeste 0 1013.1 0 55
2019-06-13 14:00:00 24 22 Norte 35 Noroeste 0 1013.5 0.6 46
2019-06-13 13:00:00 22.4 23 Nordeste 33 Nordeste 0 1013.4 0.7 60
2019-06-13 12:00:00 22.5 25 Nordeste 35 Norte 0 1013.1 0.9 62
2019-06-13 11:00:00 22.3 15 Norte 33 Norte 0 1012.9 1.4 56
2019-06-13 10:00:00 20.7 22 Norte 32 Norte 0 1012.7 1.7 63
2019-06-13 09:00:00 20.2 19 Norte 32 Noroeste 0 1012.2 1.5 66
2019-06-13 08:00:00 20.1 18 Norte 28 Norte 0 1011.5 0.8 67
2019-06-13 07:00:00 19.4 18 Noroeste 30 Norte 0 1011 0.1 63
2019-06-13 06:00:00 19.7 23 Norte 32 Noroeste 0 1010.7 -0.5 66
2019-06-13 05:00:00 19.7 20 Norte 32 Norte 0 1010.7 -0.8 66
2019-06-13 04:00:00 19.7 23 Norte 32 Norte 0 1010.9 -1 63
2019-06-13 03:00:00 19.7 24 Norte 33 Norte 0 1011.2 -1 68
2019-06-13 02:00:00 19.8 19 Norte 30 Norte 0 1011.5 -0.5 67
2019-06-13 01:00:00 19.9 20 Norte 32 Noroeste 0 1011.9 0.5 64
2019-06-13 00:00:00 19.9 22 Norte 41 Norte 0 1012.2 1.3 63
2019-06-12 23:00:00 20 23 Norte 42 Norte 0 1012 1.5 59
2019-06-12 22:00:00 20.3 31 Norte 41 Norte 0 1011.4 1.2 64
2019-06-12 21:00:00 20.6 31 Norte 41 Norte 0 1010.9 0.7 63
2019-06-12 20:00:00 21.2 28 Norte 52 Norte 0 1010.5 0 56
2019-06-12 19:00:00 21.8 32 Norte 48 Norte 0 1010.2 -0.2 58
2019-06-12 18:00:00 23.7 33 Norte 54 Norte 0 1010.2 -0.5 47
2019-06-12 17:00:00 23.9 33 Norte 48 Norte 0 1010.5 -0.6 51
2019-06-12 16:00:00 24 31 Norte 42 Norte 0 1010.4 -0.8 53
2019-06-12 15:00:00 23.9 31 Norte 42 Norte 0 1010.7 -0.4 56
2019-06-12 14:00:00 23.2 30 Noroeste 50 Noroeste 0 1011.1 -0.1 61
2019-06-12 13:00:00 23.9 30 Norte 46 Norte 0 1011.2 0.3 57
2019-06-12 12:00:00 22.7 32 Norte 42 Norte 0 1011.1 0.4 65
2019-06-12 11:00:00 21 35 Norte 50 Norte 0 1011.2 1.2 77
2019-06-12 10:00:00 21.4 32 Norte 42 Norte 0 1010.9 1 72
2019-06-12 09:00:00 20.4 26 Norte 45 Norte 0 1010.7 0.8 75
2019-06-12 08:00:00 20.1 30 Norte 42 Norte 0 1010 0.2 76
2019-06-12 07:00:00 19.6 27 Norte 42 Norte 0 1009.9 -0.3 79
2019-06-12 06:00:00 19.6 31 Norte 46 Norte 0 1009.9 -0.8 81
2019-06-12 05:00:00 19.9 30 Norte 39 Norte 0 1009.8 -1.2 79
2019-06-12 04:00:00 19.3 26 Norte 46 Norte 0 1010.2 -1.4 86
2019-06-12 03:00:00 19.3 28 Norte 37 Norte 0 1010.7 -1.3 87
2019-06-12 02:00:00 20.1 23 Norte 45 Norte 0 1011 -1.2 77
2019-06-12 01:00:00 20.7 25 Norte 41 Norte 0 1011.6 -0.3 75
2019-06-12 00:00:00 21 31 Norte 48 Norte 0 1012 0.2 71
2019-06-11 23:00:00 21.1 42 Norte 50 Norte 0 1012.2 0.7 67
2019-06-11 22:00:00 21.1 31 Norte 59 Norte 0 1011.9 0.4 69
2019-06-11 21:00:00 21.3 36 Norte 55 Norte 0 1011.8 0.2 65
2019-06-11 20:00:00 22.1 32 Norte 50 Norte 0 1011.5 -0.4 60
2019-06-11 19:00:00 22.8 40 Norte 54 Norte 0 1011.5 -0.6 59
2019-06-11 18:00:00 23.7 36 Norte 54 Norte 0 1011.6 -1 56
2019-06-11 17:00:00 24.5 37 Norte 52 Norte 0 1011.9 -1.2 51
2019-06-11 16:00:00 25.2 35 Norte 52 Norte 0 1012.1 -1.4 51
2019-06-11 15:00:00 25.2 34 Norte 48 Norte 0 1012.6 -0.8 51
2019-06-11 14:00:00 25.1 36 Nordeste 46 Nordeste 0 1013.1 -0.4 52
2019-06-11 13:00:00 24.2 33 Nordeste 45 Nordeste 0 1013.5 -0.1 54
2019-06-11 12:00:00 23.7 34 Nordeste 48 Norte 0 1013.4 -0.3 52
2019-06-11 11:00:00 23.1 36 Norte 50 Norte 0 1013.5 -0.1 52
2019-06-11 10:00:00 21.3 34 Norte 48 Norte 0 1013.6 0.3 58
2019-06-11 09:00:00 20.6 34 Norte 42 Norte 0 1013.7 0.4 57
2019-06-11 08:00:00 19.8 31 Norte 39 Norte 0 1013.6 0.1 67
2019-06-11 07:00:00 19.3 31 Norte 48 Norte 0 1013.3 -0.4 67
2019-06-11 06:00:00 19.4 28 Norte 46 Norte 0 1013.3 -1.1 69
2019-06-11 05:00:00 19.4 33 Norte 50 Norte 0 1013.5 -1.5 71
2019-06-11 04:00:00 19.8 34 Norte 46 Norte 0 1013.7 -2.1 68
2019-06-11 03:00:00 19.5 30 Norte 42 Norte 0 1014.4 -1.6 70
2019-06-11 02:00:00 19.4 25 Norte 41 Norte 0 1015 -0.9 71
2019-06-11 01:00:00 19.3 31 Norte 48 Norte 0 1015.8 0.2 70
2019-06-11 00:00:00 19.7 33 Norte 45 Norte 0 1016 0.7 71
2019-06-10 23:00:00 20.3 29 Norte 45 Norte 0 1015.9 0.9 70
2019-06-10 22:00:00 20.8 34 Norte 46 Norte 0 1015.6 0.8 71
2019-06-10 21:00:00 21.1 34 Norte 48 Norte 0 1015.3 0.2 65
2019-06-10 20:00:00 22 38 Norte 48 Norte 0 1015 -0.6 63
2019-06-10 19:00:00 23.1 39 Norte 50 Norte 0 1014.8 -1.3 58
2019-06-10 18:00:00 23.9 37 Norte 50 Norte 0 1015.1 -1.4 55
2019-06-10 17:00:00 24.4 36 Nordeste 46 Nordeste 0 1015.6 -1.2 55
2019-06-10 16:00:00 24.5 37 Nordeste 52 Norte 0 1016.1 -1.3 55
2019-06-10 15:00:00 26 40 Norte 50 Norte 0 1016.5 -1.3 45
2019-06-10 14:00:00 24.9 36 Norte 48 Norte 0 1016.8 -1.2 51
2019-06-10 13:00:00 23.5 30 Nordeste 41 Nordeste 0 1017.4 -0.8 62
2019-06-10 12:00:00 23.1 27 Nordeste 37 Norte 0 1017.8 -0.6 63
2019-06-10 11:00:00 22.5 30 Nordeste 37 Nordeste 0 1018 0 63
2019-06-10 10:00:00 21.6 27 Nordeste 41 Norte 0 1018.2 0.6 64
2019-06-10 09:00:00 20.4 26 Norte 45 Norte 0 1018.4 0.8 66
2019-06-10 08:00:00 20 29 Norte 39 Norte 0 1018 0.2 66
2019-06-10 07:00:00 19.7 22 Norte 41 Norte 0 1017.6 -0.4 69
2019-06-10 06:00:00 19.6 24 Norte 39 Norte 0 1017.6 -0.5 69
2019-06-10 05:00:00 19.3 18 Norte 33 Norte 0 1017.8 -1 70
2019-06-10 04:00:00 19.7 25 Norte 46 Norte 0 1018 -1.4 69
2019-06-10 03:00:00 19.8 33 Norte 45 Norte 0 1018.1 -1.5 72
2019-06-10 02:00:00 20 32 Norte 50 Norte 0 1018.8 -0.7 71
2019-06-10 01:00:00 20.1 34 Norte 48 Norte 0 1019.4 0.5 68
2019-06-10 00:00:00 20.3 34 Norte 45 Norte 0 1019.6 1.2 68
2019-06-09 23:00:00 20.2 30 Norte 46 Norte 0 1019.5 1.4 67
2019-06-09 22:00:00 20 36 Norte 46 Norte 0 1018.9 1.1 68
2019-06-09 21:00:00 20.6 35 Norte 48 Norte 0 1018.4 0.4 66
2019-06-09 20:00:00 21.6 33 Norte 46 Norte 0 1018.1 0.1 61
2019-06-09 19:00:00 22.2 33 Nordeste 46 Norte 0 1017.8 -0.6 66
2019-06-09 18:00:00 22.6 35 Nordeste 48 Nordeste 0 1018 -0.8 63
2019-06-09 17:00:00 23.3 36 Nordeste 46 Nordeste 0 1018 -1.4 60
2019-06-09 16:00:00 23.4 35 Nordeste 45 Nordeste 0 1018.4 -1.3 54
2019-06-09 15:00:00 23.4 35 Nordeste 45 Nordeste 0 1018.8 -0.6 56
2019-06-09 14:00:00 23.5 33 Nordeste 42 Nordeste 0 1019.4 0.2 54
2019-06-09 13:00:00 23.2 33 Nordeste 42 Nordeste 0 1019.7 0.3 58
2019-06-09 12:00:00 23.2 33 Nordeste 46 Nordeste 0 1019.4 0.1 50
2019-06-09 11:00:00 21.4 31 Nordeste 41 Nordeste 0 1019.2 0.4 60
2019-06-09 10:00:00 21.3 27 Nordeste 39 Norte 0 1019.4 0.8 57
2019-06-09 09:00:00 20.5 29 Norte 42 Norte 0 1019.3 1 56
2019-06-09 08:00:00 20.1 24 Norte 33 Norte 0 1018.8 0.5 59
2019-06-09 07:00:00 19.7 25 Norte 33 Norte 0 1018.6 0.1 61
2019-06-09 06:00:00 19.6 23 Norte 32 Norte 0 1018.3 -0.5 66
2019-06-09 05:00:00 19.1 17 Norte 28 Norte 0 1018.3 -0.9 65
2019-06-09 04:00:00 19.1 22 Norte 30 Norte 0 1018.5 -0.9 64
2019-06-09 03:00:00 19.2 19 Norte 33 Norte 0 1018.8 -0.5 64
2019-06-09 02:00:00 19.6 28 Norte 37 Norte 0 1019.2 0.2 62
2019-06-09 01:00:00 19.3 23 Norte 41 Norte 0 1019.4 1.1 68
2019-06-09 00:00:00 19.6 33 Norte 46 Norte 0 1019.3 1.4 67
2019-06-08 23:00:00 20.2 37 Norte 45 Norte 0 1019 1.4 63
2019-06-08 22:00:00 20.6 27 Norte 42 Norte 0 1018.3 1.1 64
2019-06-08 21:00:00 20.9 32 Norte 42 Norte 0 1017.9 0.9 58
2019-06-08 20:00:00 22.5 31 Norte 45 Nordeste 0 1017.6 0.5 50
2019-06-08 19:00:00 22.3 32 Nordeste 42 Nordeste 0 1017.2 0 65
2019-06-08 18:00:00 22.7 30 Nordeste 39 Nordeste 0 1017 -0.3 63
2019-06-08 17:00:00 22.9 32 Nordeste 41 Nordeste 0 1017.1 -0.3 64
2019-06-08 16:00:00 23.6 31 Nordeste 45 Nordeste 0 1017.2 -0.8 61
2019-06-08 15:00:00 23.4 31 Nordeste 39 Nordeste 0 1017.3 -1 62
2019-06-08 14:00:00 23.4 26 Nordeste 33 Nordeste 0 1017.4 -0.6 59
2019-06-08 13:00:00 22.3 22 Nordeste 30 Nordeste 0 1018 0.4 63
2019-06-08 12:00:00 21.3 17 Nordeste 26 Nordeste 0 1018.3 1.2 68
2019-06-08 11:00:00 20.7 17 Nordeste 26 Nordeste 0 1018 1.2 73
2019-06-08 10:00:00 20.7 24 Nordeste 33 Nordeste 0 1017.6 1.4 73
2019-06-08 09:00:00 20.7 22 Nordeste 28 Nordeste 0 1017.1 1.1 76
2019-06-08 08:00:00 19.7 14 Norte 26 Norte 0 1016.8 1 76
2019-06-08 07:00:00 19.5 21 Norte 37 Norte 0 1016.2 0.4 77
2019-06-08 06:00:00 20.1 21 Norte 32 Nordeste 0 1016 0.1 80
2019-06-08 05:00:00 20.3 25 Norte 32 Norte 0 1015.8 -0.2 82
2019-06-08 04:00:00 20.4 18 Norte 30 Norte 0 1015.8 -0.2 79
2019-06-08 03:00:00 20.5 21 Norte 30 Norte 0 1015.9 0 78
2019-06-08 02:00:00 20.3 20 Norte 32 Norte 0 1016 0.1 79
2019-06-08 01:00:00 20.5 24 Norte 33 Norte 0 1016 0.5 80
2019-06-08 00:00:00 21 24 Norte 39 Norte 0 1015.9 0.8 75
2019-06-07 23:00:00 21.5 27 Norte 33 Norte 0 1015.9 0.9 74
2019-06-07 22:00:00 21.4 27 Norte 39 Norte 0 1015.5 0.8 72
2019-06-07 21:00:00 22.1 27 Norte 39 Norte 0 1015.1 0.5 68
2019-06-07 20:00:00 23.2 27 Norte 37 Norte 0 1015 0.3 63
2019-06-07 19:00:00 22.4 24 Nordeste 32 Nordeste 0 1014.7 -0.1 73
2019-06-07 18:00:00 23.3 24 Nordeste 32 Nordeste 0 1014.6 -0.7 64
2019-06-07 17:00:00 23.6 23 Nordeste 30 Nordeste 0 1014.7 -0.7 62
2019-06-07 16:00:00 23.3 22 Nordeste 30 Nordeste 0 1014.8 -0.6 65
2019-06-07 15:00:00 23.7 24 Nordeste 32 Nordeste 0 1015.3 0 62
2019-06-07 14:00:00 23 24 Nordeste 33 Nordeste 0 1015.4 0.4 65
2019-06-07 13:00:00 22.8 28 Nordeste 33 Nordeste 0 1015.4 0.7 63
2019-06-07 12:00:00 23.3 26 Nordeste 35 Nordeste 0 1015.3 0.9 58
2019-06-07 11:00:00 22.1 24 Nordeste 35 Nordeste 0 1015 1 61
2019-06-07 10:00:00 21.6 27 Nordeste 39 Norte 0 1014.7 0.9 65
2019-06-07 09:00:00 20.4 28 Norte 41 Norte 0 1014.4 0.8 70
2019-06-07 08:00:00 19.8 28 Norte 35 Norte 0 1014 0.5 72
2019-06-07 07:00:00 19.4 14 Norte 26 Norte 0 1013.8 0 71
2019-06-07 06:00:00 19.2 19 Norte 28 Norte 0 1013.6 -0.5 71
2019-06-07 05:00:00 19 19 Norte 28 Norte 0 1013.5 -1 72
2019-06-07 04:00:00 18.7 22 Norte 30 Norte 0 1013.8 -1.2 73
2019-06-07 03:00:00 19.1 24 Norte 37 Norte 0 1014.1 -0.8 72
2019-06-07 02:00:00 19.7 26 Norte 35 Norte 0 1014.5 -0.2 69
2019-06-07 01:00:00 19.4 27 Norte 39 Norte 0 1015 0.6 68
2019-06-07 00:00:00 19.7 29 Norte 39 Norte 0 1014.9 1 66
2019-06-06 23:00:00 19.5 28 Norte 39 Norte 0 1014.7 1.2 66
2019-06-06 22:00:00 19.8 28 Norte 41 Norte 0 1014.4 1.3 65
2019-06-06 21:00:00 20.4 32 Norte 48 Noroeste 0 1013.9 0.7 57
2019-06-06 20:00:00 21.9 30 Norte 48 Norte 0 1013.5 0.2 55
2019-06-06 19:00:00 23.1 36 Norte 48 Noroeste 0 1013.1 -0.2 48
2019-06-06 18:00:00 24.3 31 Norte 48 Norte 0 1013.2 -0.3 45
2019-06-06 17:00:00 23.8 32 Norte 48 Norte 0 1013.3 -0.5 48
2019-06-06 16:00:00 24.1 33 Nordeste 46 Norte 0 1013.3 -1 51
2019-06-06 15:00:00 24.4 36 Nordeste 45 Nordeste 0 1013.5 -0.7 48
2019-06-06 14:00:00 23.8 27 Nordeste 42 Norte 0 1013.8 -0.1 46
2019-06-06 13:00:00 22.8 32 Norte 41 Norte 0 1014.3 0.3 50
2019-06-06 12:00:00 22.2 33 Norte 46 Norte 0 1014.2 0.5 52
2019-06-06 11:00:00 22.2 27 Norte 45 Norte 0 1013.9 0.6 53
2019-06-06 10:00:00 21.6 31 Norte 42 Norte 0 1014 0.9 54
2019-06-06 09:00:00 20.4 31 Norte 39 Norte 0 1013.7 0.6 61
2019-06-06 08:00:00 20.1 24 Norte 32 Norte 0 1013.3 0.2 58
2019-06-06 07:00:00 19.8 26 Norte 35 Norte 0 1013.1 -0.1 63
2019-06-06 06:00:00 19.6 25 Norte 39 Norte 0 1013.1 -0.2 60
2019-06-06 05:00:00 19.9 25 Norte 37 Norte 0 1013.1 -0.9 68
2019-06-06 04:00:00 19.9 25 Norte 32 Norte 0 1013.2 -1.6 69
2019-06-06 03:00:00 19.4 21 Norte 33 Norte 0 1013.3 -2 64
2019-06-06 02:00:00 19.3 21 Norte 32 Norte 0 1014 -1.2 71
2019-06-06 01:00:00 19.5 22 Norte 33 Norte 0 1014.8 0.2 69
2019-06-06 00:00:00 20.1 23 Norte 39 Norte 0 1015.3 1.4 71
2019-06-05 23:00:00 20.8 25 Norte 41 Norte 0 1015.2 1.8 72
2019-06-05 22:00:00 21 33 Nordeste 42 Norte 0 1014.6 1.5 70
2019-06-05 21:00:00 21.1 33 Nordeste 45 Nordeste 0 1013.9 0.7 81
2019-06-05 20:00:00 21.4 33 Nordeste 46 Nordeste 0 1013.4 -0.2 79
2019-06-05 19:00:00 21.9 30 Nordeste 39 Nordeste 0 1013.1 -0.9 80
2019-06-05 18:00:00 22.6 24 Nordeste 33 Nordeste 0 1013.2 -1.3 77
2019-06-05 17:00:00 22.8 21 Nordeste 30 Nordeste 0 1013.6 -1.1 73
2019-06-05 16:00:00 22.9 25 Nordeste 32 Nordeste 0 1014 -1 73
2019-06-05 15:00:00 23.2 20 Nordeste 28 Nordeste 0 1014.5 -0.7 73
2019-06-05 14:00:00 23.5 20 Nordeste 26 Nordeste 0 1014.7 -0.6 71
2019-06-05 13:00:00 23.4 21 Nordeste 28 Nordeste 0 1015 0 70
2019-06-05 12:00:00 23.1 21 Nordeste 28 Nordeste 0 1015.2 0.2 70
2019-06-05 11:00:00 22.5 21 Nordeste 35 Norte 0 1015.3 0.8 74
2019-06-05 10:00:00 22.4 30 Nordeste 37 Nordeste 0 1015 0.7 75
2019-06-05 09:00:00 22 25 Nordeste 39 Norte 0 1015 0.9 73
2019-06-05 08:00:00 20.9 26 Norte 35 Norte 0 1014.5 0.3 78
2019-06-05 07:00:00 20.8 22 Norte 30 Norte 0 1014.3 -0.2 76
2019-06-05 06:00:00 20.6 21 Norte 28 Norte 0 1014.1 -0.7 77
2019-06-05 05:00:00 21 22 Norte 30 Norte 0 1014.2 -1 80
2019-06-05 04:00:00 20.8 23 Norte 30 Norte 0 1014.5 -1.5 80
2019-06-05 03:00:00 20.9 26 Norte 37 Norte 0 1014.8 -1.5 76
2019-06-05 02:00:00 20.7 26 Norte 33 Norte 0 1015.2 -0.5 78
2019-06-05 01:00:00 20.5 23 Norte 32 Norte 0 1016 0.8 79
2019-06-05 00:00:00 20.6 21 Norte 32 Norte 0 1016.3 1.7 78
2019-06-04 23:00:00 20.9 26 Norte 45 Norte 0 1015.7 1.7 76
2019-06-04 22:00:00 21.5 31 Norte 41 Norte 0 1015.2 1.4 73
2019-06-04 21:00:00 22.1 33 Norte 45 Norte 0 1014.6 0.7 71
2019-06-04 20:00:00 22.2 30 Nordeste 39 Nordeste 0 1014 -0.2 78
2019-06-04 19:00:00 22.6 28 Nordeste 37 Nordeste 0 1013.8 -0.6 76
2019-06-04 18:00:00 23.5 28 Nordeste 39 Nordeste 0 1013.9 -0.8 72
2019-06-04 17:00:00 23.7 29 Nordeste 37 Nordeste 0 1014.2 -0.8 72
2019-06-04 16:00:00 23.9 27 Nordeste 39 Nordeste 0 1014.4 -0.9 71
2019-06-04 15:00:00 24.6 30 Nordeste 37 Nordeste 0 1014.7 -0.3 69
2019-06-04 14:00:00 24.9 25 Nordeste 35 Nordeste 0 1015 0.5 65
2019-06-04 13:00:00 24.9 21 Nordeste 28 Nordeste 0 1015.3 1 63
2019-06-04 12:00:00 25.4 17 Nordeste 28 Nordeste 0 1015 1.5 56
2019-06-04 11:00:00 26.3 22 Nordeste 32 Norte 0 1014.5 1.7 46
2019-06-04 10:00:00 25.8 24 Nordeste 33 Norte 0 1014.3 1.9 45
2019-06-04 09:00:00 25.1 24 Norte 33 Norte 0 1013.5 1.4 41
2019-06-04 08:00:00 22.8 19 Norte 30 Norte 0 1012.8 0.9 52
2019-06-04 07:00:00 21.4 13 Norte 17 Norte 0 1012.4 1 58
2019-06-04 06:00:00 21.4 12 Norte 17 Noroeste 0 1012.1 0.1 54
2019-06-04 05:00:00 22.9 6 Oeste 30 Norte 0 1011.9 -1.2 49
2019-06-04 04:00:00 23.6 17 Norte 26 Norte 0 1011.4 -2.5 34
2019-06-04 03:00:00 23.3 20 Norte 28 Norte 0 1012 -2.1 35
2019-06-04 02:00:00 22.9 18 Norte 26 Norte 0 1013.1 -0.4 51
2019-06-04 01:00:00 22.2 15 Norte 24 Norte 0 1013.9 1.2 70
2019-06-04 00:00:00 22.6 15 Norte 26 Norte 0 1014.1 2 71
2019-06-03 23:00:00 23.6 16 Norte 28 Norte 0 1013.5 1.8 68
2019-06-03 22:00:00 24.5 13 Noroeste 22 Noroeste 0 1012.7 1.4 66
2019-06-03 21:00:00 23.8 11 Norte 22 Nordeste 0 1012.1 0.5 75
2019-06-03 20:00:00 24 17 Nordeste 26 Nordeste 0 1011.7 -0.2 72
2019-06-03 19:00:00 24.4 13 Nordeste 26 Nordeste 0 1011.3 -0.7 73
2019-06-03 18:00:00 23.9 15 Nordeste 24 Nordeste 0 1011.6 -1 74
2019-06-03 17:00:00 23.6 17 Nordeste 30 Nordeste 0 1011.9 -0.6 76
2019-06-03 16:00:00 23.8 23 Nordeste 30 Nordeste 0 1012 -0.8 75
2019-06-03 15:00:00 23.8 18 Nordeste 28 Nordeste 0 1012.6 0.3 76
2019-06-03 14:00:00 24.3 22 Nordeste 30 Norte 0 1012.5 0.5 75
2019-06-03 13:00:00 24 19 Nordeste 28 Nordeste 0 1012.8 1.5 76
2019-06-03 12:00:00 25 18 Nordeste 24 Nordeste 0 1012.3 1.4 67
2019-06-03 11:00:00 24.8 9 Nordeste 17 Nordeste 0 1012 1.4 68
2019-06-03 10:00:00 25 10 Nordeste 15 Este 0 1011.3 1.2 62
2019-06-03 09:00:00 24.8 8 Nordeste 13 Norte 0 1010.9 1 60
2019-06-03 08:00:00 24.6 12 Norte 18 Norte 0 1010.6 0.8 49
2019-06-03 07:00:00 25.1 15 Noroeste 24 Norte 0 1010.1 -0.2 30
2019-06-03 06:00:00 24.9 13 Norte 18 Norte 0 1009.9 -1.1 30
2019-06-03 05:00:00 25.1 15 Norte 30 Norte 0 1009.8 -2 31
2019-06-03 04:00:00 24.4 15 Norte 24 Norte 0 1010.3 -2 31
2019-06-03 03:00:00 24.2 22 Norte 35 Norte 0 1011 -1.1 40
2019-06-03 02:00:00 23.3 18 Norte 28 Norte 0 1011.8 0.4 60
2019-06-03 01:00:00 25 16 Norte 26 Norte 0 1012.3 1.6 44
2019-06-03 00:00:00 25.2 13 Norte 26 Norte 0 1012.1 1.8 48
2019-06-02 23:00:00 25.7 15 Norte 24 Norte 0 1011.4 1.5 42
2019-06-02 22:00:00 24.4 16 Norte 35 Norte 0 1010.7 1.2 53
2019-06-02 21:00:00 25.4 19 Norte 26 Norte 0 1010.3 1.5 47
2019-06-02 20:00:00 25.1 9 Norte 21 Norte 0 1009.9 1 55
2019-06-02 19:00:00 25.1 6 Este 17 Este 0 1009.5 0.4 56
2019-06-02 18:00:00 26.5 10 Este 21 Nordeste 0 1008.8 -0.8 48
2019-06-02 17:00:00 28.5 21 Nordeste 37 Norte 0 1008.9 -1.1 37
2019-06-02 16:00:00 27.6 19 Norte 33 Nordeste 0 1009.1 -1 45
2019-06-02 15:00:00 27.9 23 Nordeste 37 Norte 0 1009.6 -0.6 44
2019-06-02 14:00:00 25.5 16 Nordeste 26 Nordeste 0 1010 -0.2 67
2019-06-02 13:00:00 26.6 13 Nordeste 26 Nordeste 0 1010.1 0 55
2019-06-02 12:00:00 27.6 19 Nordeste 35 Norte 0 1010.2 0.7 46
2019-06-02 11:00:00 27.4 26 Nordeste 35 Norte 0 1010.2 1.1 48
2019-06-02 10:00:00 26.6 23 Nordeste 33 Norte 0 1010.1 1.6 49
2019-06-02 09:00:00 26.9 21 Norte 28 Norte 0 1009.5 1.1 40
2019-06-02 08:00:00 24.9 13 Norte 21 Noroeste 0 1009.1 0.9 42
2019-06-02 07:00:00 24.4 12 Noroeste 24 Noroeste 0 1008.5 0.6 43
2019-06-02 06:00:00 24 18 Noroeste 22 Noroeste 0 1008.4 -0.3 48
2019-06-02 05:00:00 25.1 15 Noroeste 22 Noroeste 0 1008.2 -1.2 36
2019-06-02 04:00:00 26 17 Noroeste 24 Norte 0 1007.9 -2.1 26
2019-06-02 03:00:00 24.9 15 Noroeste 22 Noroeste 0 1008.7 -2.2 35
2019-06-02 02:00:00 23.9 16 Norte 21 Noroeste 0 1009.4 -1.6 39
2019-06-02 01:00:00 22.3 11 Norte 21 Norte 0 1010 0.1 71
2019-06-02 00:00:00 22.2 15 Norte 18 Norte 0 1010.9 2 82
2019-06-01 23:00:00 22 11 Norte 15 Norte 0 1011 3 85
2019-06-01 22:00:00 22.3 8 Sudeste 17 Sudeste 0 1009.9 1.9 84
2019-06-01 21:00:00 22.7 13 Sudeste 17 Sudeste 0 1008.9 0.7 82
2019-06-01 20:00:00 22.9 8 Sudeste 11 Sudeste 0 1008 -0.7 78
2019-06-01 19:00:00 23.6 6 Sudeste 13 Este 0 1008 -1.2 75
2019-06-01 18:00:00 23.4 8 Sudeste 15 Sudeste 0 1008.2 -1.4 75
2019-06-01 17:00:00 23.4 10 Sudeste 17 Este 0 1008.7 -1.2 75
2019-06-01 16:00:00 23.4 11 Este 18 Este 0 1009.2 -0.9 74
2019-06-01 15:00:00 23 12 Este 18 Sudeste 0 1009.6 -0.7 75
2019-06-01 14:00:00 22.9 13 Este 21 Este 0 1009.9 -0.4 74
2019-06-01 13:00:00 22.9 14 Este 21 Nordeste 0 1010.1 -0.1 72
2019-06-01 12:00:00 23 16 Nordeste 21 Este 0 1010.3 0.4 73
2019-06-01 11:00:00 22.9 14 Nordeste 21 Nordeste 0 1010.3 0.9 72
2019-06-01 10:00:00 22.5 13 Nordeste 17 Nordeste 0 1010.2 1.2 74
2019-06-01 09:00:00 21.4 3 Nordeste 17 Norte 0 1009.9 1.3 76
2019-06-01 08:00:00 20.1 11 Norte 30 Noroeste 0 1009.4 1.6 79
2019-06-01 07:00:00 19.7 20 Noroeste 30 Oeste 0 1009 0.6 82
2019-06-01 06:00:00 20.3 14 Noroeste 30 Oeste 0 1008.6 0.4 78
2019-06-01 05:00:00 20 18 Oeste 32 Oeste 0 1007.8 -1.3 81
2019-06-01 04:00:00 20.1 10 Nordeste 30 Norte 0 1008.4 -2.2 83
2019-06-01 03:00:00 20.5 26 Norte 37 Norte 0 1008.2 -2.4 77
2019-06-01 02:00:00 20.5 9 Sudoeste 13 Sudoeste 0 1009.1 -1.6 82
2019-06-01 01:00:00 20.8 5 Este 21 Nordeste 0 1010.6 0.4 83
2019-06-01 00:00:00 20.8 16 Norte 24 Norte 0 1010.6 1.4 79
2019-05-31 23:00:00 20.8 15 Noroeste 26 Norte 0 1010.7 2.5 76
2019-05-31 22:00:00 21 21 Norte 30 Noroeste 0 1010.2 2.1 75
2019-05-31 21:00:00 21.7 19 Noroeste 42 Noroeste 0 1009.2 0.9 70
2019-05-31 20:00:00 22.5 32 Oeste 50 Oeste 0 1008.2 -0.6 67
2019-05-31 19:00:00 24.7 27 Oeste 42 Noroeste 0 1008.1 -1.1 58
2019-05-31 18:00:00 26.5 27 Noroeste 41 Oeste 0 1008.3 -1.4 52
2019-05-31 17:00:00 27.3 22 Oeste 42 Oeste 0 1008.8 -1.3 49
2019-05-31 16:00:00 25.1 17 Sudeste 26 Sudeste 0 1009.2 -1.5 65
2019-05-31 15:00:00 25.3 13 Sudeste 22 Este 0 1009.7 -1 62
2019-05-31 14:00:00 25.1 13 Este 21 Este 0 1010.1 -0.7 62
2019-05-31 13:00:00 23.3 13 Sudeste 22 Sudeste 0 1010.7 0.3 70
2019-05-31 12:00:00 23.1 13 Sudeste 21 Sudeste 0 1010.7 1.1 66
2019-05-31 11:00:00 22.5 14 Sudeste 22 Sudeste 0 1010.8 1.4 67
2019-05-31 10:00:00 21.6 18 Sudeste 42 Oeste 0 1010.4 1.5 74
2019-05-31 09:00:00 21 25 Oeste 45 Oeste 0 1009.6 0.6 71
2019-05-31 08:00:00 19.4 0 Calma 41 Oeste 0 1009.4 -0.2 78
2019-05-31 07:00:00 18.8 26 Oeste 42 Oeste 0 1008.9 -1.2 79
2019-05-31 06:00:00 18.9 27 Oeste 39 Oeste 0 1009 -1.6 79
2019-05-31 05:00:00 18.9 17 Noroeste 30 Noroeste 0 1009.6 -1.6 81
2019-05-31 04:00:00 19.5 15 Oeste 26 Oeste 0 1010.1 -1.1 77
2019-05-31 03:00:00 19.6 20 Oeste 33 Oeste 0 1010.6 -1.1 78
2019-05-31 02:00:00 19.9 21 Oeste 41 Oeste 0 1011.2 -0.5 74
2019-05-31 01:00:00 20.1 27 Oeste 42 Oeste 0 1011.2 -0.1 72
2019-05-31 00:00:00 20 28 Oeste 45 Oeste 0 1011.7 1 74
2019-05-30 23:00:00 20.4 24 Oeste 45 Noroeste 0 1011.7 1.6 70
2019-05-30 22:00:00 20.5 25 Oeste 46 Oeste 0 1011.3 1.4 71
2019-05-30 21:00:00 21 30 Oeste 50 Oeste 0 1010.7 0.8 68
2019-05-30 20:00:00 22.4 32 Oeste 50 Oeste 0 1010.1 -0.2 63
2019-05-30 19:00:00 24.4 33 Oeste 54 Oeste 0 1009.9 -0.8 55
2019-05-30 18:00:00 25.9 33 Oeste 46 Oeste 0 1009.9 -1.1 50
2019-05-30 17:00:00 26.8 25 Oeste 46 Oeste 0 1010.3 -1 46
2019-05-30 16:00:00 27.3 29 Oeste 50 Oeste 0 1010.7 -1.1 45
2019-05-30 15:00:00 27.7 33 Oeste 46 Oeste 0 1011 -0.9 44
2019-05-30 14:00:00 27 24 Oeste 39 Oeste 0 1011.3 -0.6 46
2019-05-30 13:00:00 26.2 18 Oeste 35 Oeste 0 1011.8 0.1 48
2019-05-30 12:00:00 25.1 14 Oeste 24 Oeste 0 1011.9 0.3 51
2019-05-30 11:00:00 23.7 12 Noroeste 32 Oeste 0 1011.9 0.4 55
2019-05-30 10:00:00 21.9 21 Oeste 39 Oeste 0 1011.7 0.8 62
2019-05-30 09:00:00 20.2 23 Oeste 35 Noroeste 0 1011.6 1 70
2019-05-30 08:00:00 18.4 19 Noroeste 33 Oeste 0 1011.5 1.1 78
2019-05-30 07:00:00 17.8 17 Noroeste 37 Oeste 0 1010.9 0.1 79
2019-05-30 06:00:00 18.1 21 Noroeste 35 Oeste 0 1010.6 -1.1 78
2019-05-30 05:00:00 18.1 20 Noroeste 33 Oeste 0 1010.4 -1.9 77
2019-05-30 04:00:00 17.9 3 Sudeste 5 Sur 0 1010.8 -2 76
2019-05-30 03:00:00 18.3 0 Calma 18 Norte 0 1011.7 -1.7 75
2019-05-30 02:00:00 18.4 13 Norte 18 Norte 0 1012.3 -0.8 75
2019-05-30 01:00:00 19 15 Norte 28 Norte 0 1012.8 0.4 74
2019-05-30 00:00:00 19.4 19 Norte 26 Norte 0 1013.4 1.8 72
2019-05-29 23:00:00 19.8 21 Norte 32 Norte 0 1013.1 2.1 71
2019-05-29 22:00:00 20.4 12 Norte 35 Oeste 0 1012.4 2 68
2019-05-29 21:00:00 20.6 27 Noroeste 46 Oeste 0 1011.6 1 69
2019-05-29 20:00:00 23.4 21 Noroeste 35 Oeste 0 1011 0.2 56
2019-05-29 19:00:00 25.5 18 Noroeste 39 Noroeste 0 1010.4 -0.7 47
2019-05-29 18:00:00 26.5 22 Norte 37 Oeste 0 1010.6 -0.6 45
2019-05-29 17:00:00 27.1 18 Noroeste 48 Norte 0 1010.8 -1 45
2019-05-29 16:00:00 27.3 28 Nordeste 39 Norte 0 1011.1 -1.4 45
2019-05-29 15:00:00 27.1 28 Nordeste 42 Norte 0 1011.2 -1.4 45
2019-05-29 14:00:00 26.6 31 Norte 41 Norte 0 1011.8 -0.9 45
2019-05-29 13:00:00 25.8 32 Norte 42 Norte 0 1012.5 -0.1 49
2019-05-29 12:00:00 25.2 18 Norte 30 Noroeste 0 1012.6 0.2 49
2019-05-29 11:00:00 23.7 11 Norte 26 Norte 0 1012.7 0.4 55
2019-05-29 10:00:00 21.9 9 Noroeste 32 Norte 0 1012.6 0.6 60
2019-05-29 09:00:00 20.4 23 Norte 30 Norte 0 1012.4 0.8 68
2019-05-29 08:00:00 18.5 14 Norte 21 Noroeste 0 1012.3 0.7 76
2019-05-29 07:00:00 17.6 6 Norte 17 Norte 0 1012 0.2 78
2019-05-29 06:00:00 17.8 11 Norte 21 Norte 0 1011.6 -0.3 78
2019-05-29 05:00:00 18.1 18 Norte 26 Norte 0 1011.6 -0.8 79
2019-05-29 04:00:00 18.4 16 Norte 26 Noroeste 0 1011.8 -1 78
2019-05-29 03:00:00 18.7 15 Norte 33 Norte 0 1011.9 -1.2 78
2019-05-29 02:00:00 19 24 Norte 33 Norte 0 1012.4 -0.6 77
2019-05-29 01:00:00 19.4 26 Norte 35 Norte 0 1012.8 0.2 76
2019-05-29 00:00:00 19.7 25 Norte 39 Norte 0 1013.1 1 75
2019-05-28 23:00:00 20.1 28 Norte 41 Norte 0 1013 1.5 74
2019-05-28 22:00:00 20.1 28 Norte 41 Norte 0 1012.6 1.7 73
2019-05-28 21:00:00 20.9 26 Norte 39 Noroeste 0 1012.1 1.3 71
2019-05-28 20:00:00 22.5 29 Norte 42 Norte 0 1011.5 0.6 64
2019-05-28 19:00:00 24.3 30 Norte 41 Norte 0 1010.9 -0.3 59
2019-05-28 18:00:00 25.2 27 Norte 42 Nordeste 0 1010.8 -0.8 57
2019-05-28 17:00:00 23.5 27 Nordeste 41 Nordeste 0 1010.9 -0.6 70
2019-05-28 16:00:00 23.4 26 Nordeste 37 Nordeste 0 1011.2 -0.5 70
2019-05-28 15:00:00 23.3 28 Nordeste 35 Nordeste 0 1011.6 -0.3 71
2019-05-28 14:00:00 23.5 26 Nordeste 39 Nordeste 0 1011.5 -0.2 69
2019-05-28 13:00:00 23.5 23 Nordeste 33 Nordeste 0 1011.7 0.3 68
2019-05-28 12:00:00 23 22 Nordeste 32 Nordeste 0 1011.9 0.5 69
2019-05-28 11:00:00 22.7 28 Nordeste 41 Norte 0 1011.7 0.7 69
2019-05-28 10:00:00 22.7 28 Norte 39 Norte 0 1011.4 0.7 66
2019-05-28 09:00:00 20.9 28 Norte 39 Norte 0 1011.4 1.1 72
2019-05-28 08:00:00 19.4 27 Norte 37 Norte 0 1011 0.9 78
2019-05-28 07:00:00 18.8 23 Norte 30 Norte 0 1010.7 0.8 81
2019-05-28 06:00:00 19.1 23 Norte 30 Norte 0 1010.3 0.3 80
2019-05-28 05:00:00 19.3 19 Norte 28 Norte 0 1010.1 -0.1 79
2019-05-28 04:00:00 19.4 14 Norte 22 Noroeste 0 1009.9 -0.3 77
2019-05-28 03:00:00 20 15 Noroeste 30 Noroeste 0 1010 -0.3 74
2019-05-28 02:00:00 20.4 21 Noroeste 30 Noroeste 0 1010.2 0 74
2019-05-28 01:00:00 20.8 21 Noroeste 30 Norte 0 1010.2 0.3 69
2019-05-28 00:00:00 20.9 24 Norte 32 Norte 0 1010.3 0.6 69
2019-05-27 23:00:00 20.9 23 Norte 35 Norte 0 1010.2 0.7 71
2019-05-27 22:00:00 21.4 28 Norte 37 Norte 0 1009.9 0.8 69
2019-05-27 21:00:00 22.6 25 Noroeste 39 Noroeste 0 1009.7 0.7 64
2019-05-27 20:00:00 24.2 28 Noroeste 39 Noroeste 0 1009.5 0.3 60
2019-05-27 19:00:00 26.1 29 Norte 42 Norte 0 1009.1 -0.2 53
2019-05-27 18:00:00 27.5 28 Norte 42 Norte 0 1009 -0.4 49
2019-05-27 17:00:00 28.4 27 Norte 42 Norte 0 1009.2 -0.7 47
2019-05-27 16:00:00 28.6 30 Norte 45 Norte 0 1009.3 -0.8 45
2019-05-27 15:00:00 28 29 Nordeste 41 Norte 0 1009.4 -0.6 48
2019-05-27 14:00:00 27.7 29 Nordeste 45 Norte 0 1009.9 -0.3 44
2019-05-27 13:00:00 27.8 30 Norte 45 Nordeste 0 1010.1 0.2 42
2019-05-27 12:00:00 27.4 30 Norte 46 Norte 0 1010 0.2 42
2019-05-27 11:00:00 26.1 27 Norte 41 Norte 0 1010.2 0.8 47
2019-05-27 10:00:00 24.2 28 Norte 41 Norte 0 1009.9 1.1 53
2019-05-27 09:00:00 22.3 29 Noroeste 39 Noroeste 0 1009.8 0.9 64
2019-05-27 08:00:00 21.1 25 Noroeste 39 Noroeste 0 1009.4 0.1 65
2019-05-27 07:00:00 21 26 Noroeste 33 Noroeste 0 1008.8 -1 62
2019-05-27 06:00:00 20.5 25 Noroeste 35 Noroeste 0 1008.9 -1.3 67
2019-05-27 05:00:00 20.5 27 Noroeste 37 Noroeste 0 1009.3 -1.3 70
2019-05-27 04:00:00 20.8 26 Noroeste 32 Noroeste 0 1009.8 -1.2 68
2019-05-27 03:00:00 20.9 22 Noroeste 30 Noroeste 0 1010.2 -0.9 68
2019-05-27 02:00:00 20.9 23 Noroeste 32 Noroeste 0 1010.6 -0.3 69
2019-05-27 01:00:00 20.9 26 Noroeste 33 Noroeste 0 1011 0.2 69
2019-05-27 00:00:00 20.9 21 Noroeste 32 Norte 0 1011.1 0.8 70
2019-05-26 23:00:00 20.9 25 Norte 33 Norte 0 1010.9 1 72
2019-05-26 22:00:00 21.2 22 Norte 37 Norte 0 1010.8 1.2 69
2019-05-26 21:00:00 22.2 30 Norte 41 Norte 0 1010.3 0.4 66
2019-05-26 20:00:00 24.3 26 Norte 41 Noroeste 0 1009.9 -0.2 58
2019-05-26 19:00:00 25.8 28 Norte 42 Norte 0 1009.6 -0.7 52
2019-05-26 18:00:00 26.6 28 Norte 45 Norte 0 1009.9 -0.6 52
2019-05-26 17:00:00 25.1 30 Nordeste 37 Nordeste 0 1010.1 -1.1 64
2019-05-26 16:00:00 27 28 Norte 45 Nordeste 0 1010.3 -1.7 50
2019-05-26 15:00:00 27.5 26 Norte 39 Norte 0 1010.5 -1.5 46
2019-05-26 14:00:00 23.9 26 Nordeste 37 Nordeste 0 1011.2 -0.8 66
2019-05-26 13:00:00 24.1 26 Nordeste 35 Nordeste 0 1012 0.6 65
2019-05-26 12:00:00 25.4 26 Norte 37 Norte 0 1012 0.9 51
2019-05-26 11:00:00 24.5 24 Norte 37 Norte 0 1012 1 53
2019-05-26 10:00:00 23.1 23 Noroeste 41 Noroeste 0 1011.4 0.3 57
2019-05-26 09:00:00 21.3 22 Noroeste 32 Noroeste 0 1011.1 0.3 66
2019-05-26 08:00:00 19.1 14 Noroeste 28 Noroeste 0 1011 0.2 75
2019-05-26 07:00:00 18.3 12 Noroeste 30 Norte 0 1011.1 0.1 76
2019-05-26 06:00:00 18.1 17 Norte 26 Norte 0 1010.8 -0.5 78
2019-05-26 05:00:00 18.5 20 Norte 30 Norte 0 1010.8 -0.9 77
2019-05-26 04:00:00 18.7 18 Norte 30 Norte 0 1011 -1.3 76
2019-05-26 03:00:00 19 23 Norte 33 Norte 0 1011.3 -1.5 75
2019-05-26 02:00:00 19.3 24 Norte 39 Norte 0 1011.7 -1.1 71
2019-05-26 01:00:00 20 28 Norte 39 Norte 0 1012.3 -0.3 67
2019-05-26 00:00:00 19.7 28 Norte 41 Norte 0 1012.8 0.7 68
2019-05-25 23:00:00 19.5 33 Norte 46 Norte 0 1012.8 1.2 69
2019-05-25 22:00:00 19.8 31 Norte 50 Noroeste 0 1012.6 1.4 66
2019-05-25 21:00:00 20.2 35 Norte 48 Norte 0 1012.1 0.6 64
2019-05-25 20:00:00 21.7 35 Norte 45 Norte 0 1011.6 0.1 59
2019-05-25 19:00:00 23.3 31 Norte 42 Norte 0 1011.2 -0.9 54
2019-05-25 18:00:00 24.3 29 Norte 41 Norte 0 1011.5 -1 50
2019-05-25 17:00:00 22.8 32 Nordeste 41 Nordeste 0 1011.5 -1.3 66
2019-05-25 16:00:00 22.9 29 Nordeste 37 Nordeste 0 1012.1 -1.3 65
2019-05-25 15:00:00 22.8 30 Nordeste 41 Nordeste 0 1012.5 -1.1 64
2019-05-25 14:00:00 23.1 31 Nordeste 42 Nordeste 0 1012.8 -0.7 64
2019-05-25 13:00:00 23 31 Nordeste 41 Nordeste 0 1013.4 0 65
2019-05-25 12:00:00 23.1 31 Nordeste 42 Nordeste 0 1013.6 0.7 64
2019-05-25 11:00:00 21.8 33 Nordeste 42 Nordeste 0 1013.5 0.9 70
2019-05-25 10:00:00 20.9 30 Nordeste 42 Nordeste 0 1013.4 1.3 73
2019-05-25 09:00:00 19.9 32 Norte 42 Nordeste 0 1012.9 0.9 76
2019-05-25 08:00:00 19.5 32 Norte 42 Norte 0 1012.6 0.5 78
2019-05-25 07:00:00 19.3 36 Norte 48 Norte 0 1012.1 0 80
2019-05-25 06:00:00 19.3 35 Norte 46 Norte 0 1012 -0.3 80
2019-05-25 05:00:00 19.2 31 Norte 42 Norte 0 1012.1 -0.4 82
2019-05-25 04:00:00 18.7 25 Norte 35 Norte 0 1012.1 -0.7 82
2019-05-25 03:00:00 18.8 22 Norte 33 Norte 0 1012.3 -1 79
2019-05-25 02:00:00 19.2 24 Norte 35 Norte 0 1012.5 -0.7 74
2019-05-25 01:00:00 19.3 24 Norte 35 Norte 0 1012.8 0.1 72
2019-05-25 00:00:00 19.5 20 Norte 30 Norte 0 1013.3 1.3 72
2019-05-24 23:00:00 20 22 Norte 32 Norte 0 1013.2 1.8 74
2019-05-24 22:00:00 20.7 27 Norte 35 Norte 0 1012.7 1.5 71
2019-05-24 21:00:00 21.7 27 Norte 39 Norte 0 1012 0.8 68
2019-05-24 20:00:00 23.1 28 Norte 41 Norte 0 1011.4 -0.2 63
2019-05-24 19:00:00 24.7 32 Norte 41 Nordeste 0 1011.2 -0.6 58
2019-05-24 18:00:00 23.5 30 Nordeste 41 Nordeste 0 1011.2 -1.2 70
2019-05-24 17:00:00 24.8 27 Nordeste 37 Nordeste 0 1011.6 -1.5 64
2019-05-24 16:00:00 24.3 26 Nordeste 39 Nordeste 0 1011.8 -1.8 66
2019-05-24 15:00:00 24.3 30 Nordeste 39 Nordeste 0 1012.4 -1.3 62
2019-05-24 14:00:00 23.8 30 Nordeste 41 Nordeste 0 1013.1 -0.1 65
2019-05-24 13:00:00 23.1 27 Nordeste 37 Nordeste 0 1013.6 0.5 70
2019-05-24 12:00:00 23.3 23 Nordeste 41 Norte 0 1013.7 0.9 69
2019-05-24 11:00:00 23.7 32 Norte 42 Norte 0 1013.2 1.3 58
2019-05-24 10:00:00 23.1 34 Norte 45 Norte 0 1013.1 1.6 59
2019-05-24 09:00:00 21.4 30 Norte 39 Norte 0 1012.8 1.3 69
2019-05-24 08:00:00 20.1 30 Norte 42 Norte 0 1011.9 0.3 72
2019-05-24 07:00:00 19.4 28 Norte 41 Norte 0 1011.5 -0.5 75
2019-05-24 06:00:00 19.3 29 Norte 41 Norte 0 1011.5 -0.6 76
2019-05-24 05:00:00 19.2 31 Norte 37 Norte 0 1011.6 -0.7 76
2019-05-24 04:00:00 19.1 29 Norte 39 Norte 0 1012 -0.9 78
2019-05-24 03:00:00 19.5 30 Noroeste 41 Noroeste 0 1012.1 -1 74
2019-05-24 02:00:00 20 32 Noroeste 41 Noroeste 0 1012.3 -0.8 69
2019-05-24 01:00:00 20.1 26 Noroeste 33 Noroeste 0 1012.9 -0.2 67
2019-05-24 00:00:00 20 24 Norte 37 Norte 0 1013.1 0.5 69
2019-05-23 23:00:00 20 26 Norte 35 Norte 0 1013.1 1.1 70
2019-05-23 22:00:00 20.1 25 Norte 37 Norte 0 1013.1 1.4 73
2019-05-23 21:00:00 20.8 27 Norte 50 Norte 0 1012.6 0.6 70
2019-05-23 20:00:00 22.1 35 Norte 52 Norte 0 1012 -0.3 65
2019-05-23 19:00:00 23.5 39 Norte 50 Norte 0 1011.7 -0.9 58
2019-05-23 18:00:00 23.2 32 Nordeste 46 Norte 0 1012 -0.8 65
2019-05-23 17:00:00 22.9 32 Nordeste 46 Nordeste 0 1012.3 -0.8 68
2019-05-23 16:00:00 23.1 34 Nordeste 46 Nordeste 0 1012.6 -0.9 67
2019-05-23 15:00:00 22.9 37 Nordeste 46 Nordeste 0 1012.8 -0.9 65
2019-05-23 14:00:00 23.2 31 Nordeste 41 Nordeste 0 1013.1 -0.4 66
2019-05-23 13:00:00 23.2 30 Nordeste 45 Nordeste 0 1013.5 -0.1 62
2019-05-23 12:00:00 22.6 32 Nordeste 45 Nordeste 0 1013.7 0.5 62
2019-05-23 11:00:00 22.2 36 Nordeste 46 Nordeste 0 1013.5 0.5 64
2019-05-23 10:00:00 21.3 33 Norte 42 Norte 0 1013.6 1 64
2019-05-23 09:00:00 19.9 26 Norte 35 Norte 0 1013.2 0.7 67
2019-05-23 08:00:00 18.6 25 Norte 35 Norte 0 1013 0.3 72
2019-05-23 07:00:00 18.3 26 Norte 33 Norte 0 1012.6 -0.1 72
2019-05-23 06:00:00 18.5 22 Norte 42 Norte 0 1012.5 -0.3 72
2019-05-23 05:00:00 19.1 28 Norte 41 Norte 0 1012.7 -0.8 70
2019-05-23 04:00:00 19.1 30 Norte 45 Norte 0 1012.7 -1.3 70
2019-05-23 03:00:00 19.3 34 Norte 48 Norte 0 1012.8 -1.4 69
2019-05-23 02:00:00 19.4 33 Norte 48 Norte 0 1013.5 -0.7 70
2019-05-23 01:00:00 19.5 30 Norte 46 Norte 0 1014 0.5 70
2019-05-23 00:00:00 19.7 31 Norte 50 Norte 0 1014.2 0.9 70
2019-05-22 23:00:00 19.9 37 Norte 58 Norte 0 1014.2 1.5 68
2019-05-22 22:00:00 19.9 36 Norte 50 Norte 0 1013.5 0.9 68
2019-05-22 21:00:00 20.4 33 Norte 48 Norte 0 1013.3 0.7 67
2019-05-22 20:00:00 21.9 35 Norte 48 Norte 0 1012.7 0.2 63
2019-05-22 19:00:00 23.2 37 Norte 46 Norte 0 1012.6 -0.2 58
2019-05-22 18:00:00 24.1 35 Norte 54 Norte 0 1012.6 -0.4 54
2019-05-22 17:00:00 24.7 40 Norte 48 Norte 0 1012.5 -0.9 54
2019-05-22 16:00:00 24.5 36 Norte 45 Norte 0 1012.8 -1.1 57
2019-05-22 15:00:00 23.3 28 Nordeste 37 Nordeste 0 1013 -0.9 68
2019-05-22 14:00:00 23.4 26 Nordeste 39 Nordeste 0 1013.4 -0.2 67
2019-05-22 13:00:00 23.6 30 Nordeste 46 Nordeste 0 1013.9 0.2 63
2019-05-22 12:00:00 22.5 27 Nordeste 45 Nordeste 0 1013.9 1 68
2019-05-22 11:00:00 22.4 31 Norte 45 Norte 0 1013.6 1.2 65
2019-05-22 10:00:00 20.9 32 Norte 46 Norte 0 1013.7 1.4 69
2019-05-22 09:00:00 20.1 34 Norte 46 Norte 0 1012.9 0.9 72
2019-05-22 08:00:00 19.6 27 Norte 41 Norte 0 1012.4 0.2 74
2019-05-22 07:00:00 19.5 26 Norte 39 Norte 0 1012.3 -0.1 76
2019-05-22 06:00:00 19.4 29 Norte 39 Norte 0 1012 -0.6 78
2019-05-22 05:00:00 19.3 26 Norte 42 Norte 0 1012.2 -0.8 78
2019-05-22 04:00:00 19 29 Norte 41 Norte 0 1012.4 -1.4 77
2019-05-22 03:00:00 19 27 Norte 39 Norte 0 1012.6 -1 78
2019-05-22 02:00:00 18.9 26 Norte 35 Norte 0 1013 -0.3 77
2019-05-22 01:00:00 19 24 Norte 33 Norte 0 1013.8 0.9 76
2019-05-22 00:00:00 19.1 22 Norte 41 Norte 0 1013.6 1 74
2019-05-21 23:00:00 19.4 30 Norte 42 Norte 0 1013.3 1 75
2019-05-21 22:00:00 19.8 31 Norte 42 Norte 0 1012.9 0.9 73
2019-05-21 21:00:00 20.3 31 Norte 45 Norte 0 1012.6 0.6 70
2019-05-21 20:00:00 21.7 34 Norte 45 Norte 0 1012.3 0.3 65
2019-05-21 19:00:00 23.4 31 Norte 46 Norte 0 1012 -0.5 58
2019-05-21 18:00:00 23.9 33 Norte 46 Norte 0 1012 -0.9 54
2019-05-21 17:00:00 24.3 32 Norte 45 Norte 0 1012 -1.3 57
2019-05-21 16:00:00 23.1 26 Nordeste 41 Nordeste 0 1012.5 -1.1 66
2019-05-21 15:00:00 22.9 26 Nordeste 37 Nordeste 0 1012.9 -0.8 66
2019-05-21 14:00:00 23.4 29 Nordeste 39 Nordeste 0 1013.3 -0.3 60
2019-05-21 13:00:00 22 29 Nordeste 37 Nordeste 0 1013.6 0.2 66
2019-05-21 12:00:00 21.9 26 Nordeste 41 Norte 0 1013.7 0.4 64
2019-05-21 11:00:00 21.2 31 Norte 41 Norte 0 1013.6 0.9 66
2019-05-21 10:00:00 20.4 26 Nordeste 39 Norte 0 1013.4 1.3 68
2019-05-21 09:00:00 19.8 25 Norte 39 Nordeste 0 1013.3 1.4 72
2019-05-21 08:00:00 19.5 26 Norte 41 Norte 0 1012.7 0.7 73
2019-05-21 07:00:00 19.5 27 Norte 39 Norte 0 1012.1 -0.5 71
2019-05-21 06:00:00 19.6 28 Norte 41 Nordeste 0 1011.9 -1.3 76
2019-05-21 05:00:00 19.4 24 Norte 37 Norte 0 1012 -1.6 75
2019-05-21 04:00:00 19.5 26 Norte 37 Norte 0 1012.6 -1.5 72
2019-05-21 03:00:00 19.6 26 Norte 37 Norte 0 1013.2 -1 71
2019-05-21 02:00:00 19.3 31 Norte 45 Norte 0 1013.6 -0.3 74
2019-05-21 01:00:00 19.5 27 Norte 45 Norte 0 1014.1 0.3 72
2019-05-21 00:00:00 19.5 31 Norte 46 Norte 0 1014.2 0.9 71